createdAt,value
2023-02-24T00:01:24.866Z,25.53
2023-02-24T00:03:53.457Z,15.00
2023-02-24T00:06:20.855Z,34.73
2023-02-24T00:08:47.946Z,26.27
2023-02-24T00:11:16.984Z,24.13
2023-02-24T00:13:46.923Z,19.60
2023-02-24T00:16:17.262Z,26.90
2023-02-24T00:18:45.321Z,20.70
2023-02-24T00:21:14.783Z,26.60
2023-02-24T00:23:43.122Z,17.07
2023-02-24T00:26:11.362Z,24.77
2023-02-24T00:28:38.619Z,16.70
2023-02-24T00:31:07.006Z,21.80
2023-02-24T00:33:34.783Z,18.03
2023-02-24T00:36:28.769Z,21.13
2023-02-24T00:38:57.794Z,24.77
2023-02-24T00:41:29.206Z,17.53
2023-02-24T00:44:08.410Z,18.80
2023-02-24T00:46:45.332Z,20.20
2023-02-24T00:49:17.173Z,18.20
2023-02-24T00:51:45.816Z,23.83
2023-02-24T00:54:16.554Z,20.60
2023-02-24T00:56:45.358Z,28.80
2023-02-24T00:59:13.358Z,16.47
2023-02-24T01:01:41.059Z,13.63
2023-02-24T01:04:11.687Z,19.07
2023-02-24T01:06:48.939Z,16.03
2023-02-24T01:09:17.865Z,24.67
2023-02-24T01:12:04.813Z,20.57
2023-02-24T01:14:33.473Z,26.23
2023-02-24T01:17:01.172Z,16.57
2023-02-24T01:19:31.550Z,14.50
2023-02-24T01:21:59.224Z,20.13
2023-02-24T01:24:26.573Z,19.03
2023-02-24T01:26:53.790Z,19.57
2023-02-24T01:29:24.168Z,23.13
2023-02-24T01:31:51.978Z,19.07
2023-02-24T01:34:19.321Z,19.10
2023-02-24T01:36:47.799Z,29.50
2023-02-24T01:39:15.368Z,15.93
2023-02-24T01:41:44.921Z,20.33
2023-02-24T01:44:15.729Z,19.33
2023-02-24T01:46:43.855Z,13.77
2023-02-24T01:49:15.954Z,16.30
2023-02-24T01:51:52.201Z,24.00
2023-02-24T01:54:21.941Z,22.57
2023-02-24T01:56:51.680Z,18.33
2023-02-24T01:59:19.844Z,17.27
2023-02-24T02:01:48.060Z,15.53
2023-02-24T02:04:32.236Z,27.73
2023-02-24T02:06:59.370Z,13.97
2023-02-24T02:09:26.479Z,14.20
2023-02-24T02:11:53.665Z,18.80
2023-02-24T02:14:22.858Z,20.67
2023-02-24T02:17:19.386Z,12.53
2023-02-24T02:20:15.440Z,10.73
2023-02-24T02:22:42.564Z,15.27
2023-02-24T02:25:16.774Z,12.33
2023-02-24T02:27:52.332Z,17.20
2023-02-24T02:30:19.566Z,29.17
2023-02-24T02:33:06.654Z,15.60
2023-02-24T02:35:36.876Z,20.80
2023-02-24T02:38:27.579Z,12.50
2023-02-24T02:41:02.069Z,19.90
2023-02-24T02:43:36.962Z,18.83
2023-02-24T02:46:15.912Z,13.10
2023-02-24T02:48:54.048Z,17.23
2023-02-24T02:51:25.368Z,15.73
2023-02-24T02:53:56.754Z,11.97
2023-02-24T02:56:26.513Z,22.57
2023-02-24T02:58:56.263Z,10.43
2023-02-24T03:01:25.818Z,12.30
2023-02-24T03:03:54.738Z,16.03
2023-02-24T03:06:35.822Z,12.90
2023-02-24T03:09:19.938Z,14.83
2023-02-24T03:11:53.469Z,24.67
2023-02-24T03:14:24.265Z,13.70
2023-02-24T03:16:53.323Z,19.17
2023-02-24T03:19:24.287Z,18.80
2023-02-24T03:21:57.257Z,13.93
2023-02-24T03:24:24.497Z,13.47
2023-02-24T03:26:53.346Z,17.20
2023-02-24T03:29:26.575Z,14.03
2023-02-24T03:32:00.676Z,14.67
2023-02-24T03:34:29.014Z,16.80
2023-02-24T03:36:56.852Z,15.37
2023-02-24T03:39:24.381Z,13.60
2023-02-24T03:42:01.964Z,18.80
2023-02-24T03:44:29.468Z,13.37
2023-02-24T03:46:56.637Z,10.37
2023-02-24T03:49:25.225Z,16.63
2023-02-24T03:51:59.647Z,12.67
2023-02-24T03:54:37.299Z,14.47
2023-02-24T03:57:07.274Z,15.10
2023-02-24T03:59:34.350Z,16.93
2023-02-24T04:02:21.753Z,15.53
2023-02-24T04:05:09.804Z,15.23
2023-02-24T04:07:42.923Z,11.20
2023-02-24T04:10:33.182Z,4.77
2023-02-24T04:13:11.684Z,11.10
2023-02-24T04:15:43.877Z,12.47
2023-02-24T04:18:16.644Z,14.23
2023-02-24T04:20:45.438Z,12.67
2023-02-24T04:23:14.974Z,10.13
2023-02-24T04:25:43.961Z,8.43
2023-02-24T04:28:12.067Z,13.10
2023-02-24T04:30:41.305Z,4.50
2023-02-24T04:33:09.947Z,9.60
2023-02-24T04:35:37.902Z,8.53
2023-02-24T04:38:05.563Z,9.57
2023-02-24T04:40:32.720Z,17.20
2023-02-24T04:43:00.125Z,9.00
2023-02-24T04:45:28.859Z,11.37
2023-02-24T04:47:58.049Z,13.50
2023-02-24T04:50:26.045Z,10.87
2023-02-24T04:52:54.546Z,13.47
2023-02-24T04:55:22.658Z,10.30
2023-02-24T04:57:50.342Z,7.37
2023-02-24T05:00:21.832Z,10.43
2023-02-24T05:02:49.949Z,16.47
2023-02-24T05:05:17.844Z,7.20
2023-02-24T05:07:48.504Z,7.07
2023-02-24T05:10:15.973Z,16.43
2023-02-24T05:12:43.730Z,10.43
2023-02-24T05:15:12.434Z,7.63
2023-02-24T05:17:40.857Z,10.50
2023-02-24T05:20:27.534Z,9.63
2023-02-24T05:22:57.136Z,7.57
2023-02-24T05:25:25.407Z,14.63
2023-02-24T05:27:52.544Z,11.27
2023-02-24T05:30:21.101Z,8.87
2023-02-24T05:32:48.242Z,9.43
2023-02-24T05:35:15.331Z,8.20
2023-02-24T05:37:42.527Z,10.70
2023-02-24T05:40:13.229Z,17.13
2023-02-24T05:42:41.343Z,8.60
2023-02-24T05:45:10.995Z,8.70
2023-02-24T05:47:40.304Z,15.17
2023-02-24T05:50:09.344Z,7.63
2023-02-24T05:52:37.872Z,5.77
2023-02-24T05:55:06.809Z,20.57
2023-02-24T05:57:35.669Z,14.00
2023-02-24T06:00:16.291Z,9.43
2023-02-24T06:02:49.641Z,8.90
2023-02-24T06:05:25.563Z,22.03
2023-02-24T06:08:06.025Z,13.17
2023-02-24T06:10:34.429Z,6.90
2023-02-24T06:13:02.449Z,18.13
2023-02-24T06:15:30.233Z,11.97
2023-02-24T06:17:57.306Z,12.87
2023-02-24T06:20:26.679Z,15.60
2023-02-24T06:22:57.354Z,9.17
2023-02-24T06:25:25.602Z,12.70
2023-02-24T06:27:55.519Z,11.77
2023-02-24T06:30:24.571Z,10.63
2023-02-24T06:32:52.253Z,15.63
2023-02-24T06:35:19.939Z,11.87
2023-02-24T06:37:47.374Z,13.40
2023-02-24T06:40:17.943Z,14.20
2023-02-24T06:42:49.055Z,18.27
2023-02-24T06:45:16.884Z,10.73
2023-02-24T06:47:46.379Z,10.27
2023-02-24T06:50:13.464Z,17.07
2023-02-24T06:52:40.772Z,13.70
2023-02-24T06:55:25.128Z,14.07
2023-02-24T06:57:57.322Z,15.43
2023-02-24T07:00:40.886Z,11.13
2023-02-24T07:03:15.235Z,13.00
2023-02-24T07:06:11.077Z,10.73
2023-02-24T07:08:38.751Z,8.60
2023-02-24T07:11:08.123Z,17.23
2023-02-24T07:13:36.738Z,12.73
2023-02-24T07:16:07.198Z,12.90
2023-02-24T07:18:37.075Z,9.97
2023-02-24T07:21:13.457Z,11.50
2023-02-24T07:23:41.710Z,8.60
2023-02-24T07:26:10.173Z,12.73
2023-02-24T07:28:40.022Z,13.53
2023-02-24T07:31:11.802Z,14.13
2023-02-24T07:33:39.950Z,14.07
2023-02-24T07:36:10.901Z,8.93
2023-02-24T07:38:38.636Z,10.83
2023-02-24T07:41:06.790Z,12.77
2023-02-24T07:43:34.502Z,9.13
2023-02-24T07:46:07.902Z,8.73
2023-02-24T07:48:36.344Z,9.17
2023-02-24T07:51:07.391Z,10.73
2023-02-24T07:53:34.963Z,13.43
2023-02-24T07:56:07.030Z,12.30
2023-02-24T07:58:34.240Z,8.17
2023-02-24T08:01:08.551Z,8.93
2023-02-24T08:03:41.232Z,13.13
2023-02-24T08:06:26.905Z,12.53
2023-02-24T08:09:10.867Z,9.73
2023-02-24T08:11:42.615Z,8.97
2023-02-24T08:14:10.934Z,6.07
2023-02-24T08:16:41.047Z,10.63
2023-02-24T08:19:12.873Z,11.83
2023-02-24T08:21:41.496Z,13.57
2023-02-24T08:24:17.736Z,4.73
2023-02-24T08:26:45.720Z,9.80
2023-02-24T08:29:13.483Z,13.40
2023-02-24T08:31:40.713Z,12.20
2023-02-24T08:34:08.088Z,10.63
2023-02-24T08:36:35.206Z,14.97
2023-02-24T08:39:02.351Z,16.90
2023-02-24T08:41:44.833Z,11.17
2023-02-24T08:44:12.843Z,11.33
2023-02-24T08:46:40.963Z,10.50
2023-02-24T08:49:10.870Z,9.60
2023-02-24T08:51:43.644Z,6.40
2023-02-24T08:54:15.443Z,11.00
2023-02-24T08:56:44.402Z,12.50
2023-02-24T08:59:28.997Z,15.63
2023-02-24T09:02:18.547Z,11.63
2023-02-24T09:04:46.754Z,12.33
2023-02-24T09:07:16.619Z,8.50
2023-02-24T09:09:44.285Z,17.87
2023-02-24T09:12:21.780Z,9.93
2023-02-24T09:14:55.444Z,7.47
2023-02-24T09:17:40.121Z,8.27
2023-02-24T09:20:30.184Z,10.97
2023-02-24T09:23:03.356Z,6.90
2023-02-24T09:25:41.132Z,9.57
2023-02-24T09:28:08.507Z,14.40
2023-02-24T09:30:50.939Z,6.37
2023-02-24T09:33:20.985Z,10.20
2023-02-24T09:35:52.040Z,9.07
2023-02-24T09:38:20.619Z,6.83
2023-02-24T09:40:49.708Z,13.03
2023-02-24T09:43:18.789Z,5.40
2023-02-24T09:45:53.507Z,8.33
2023-02-24T09:48:27.283Z,5.47
2023-02-24T09:51:05.650Z,13.07
2023-02-24T09:53:49.238Z,9.93
2023-02-24T09:56:16.529Z,6.20
2023-02-24T09:58:49.770Z,11.23
2023-02-24T10:01:30.986Z,15.03
2023-02-24T10:04:19.566Z,11.07
2023-02-24T10:06:47.616Z,10.80
2023-02-24T10:09:24.406Z,7.37
2023-02-24T10:11:55.662Z,8.73
2023-02-24T10:14:24.166Z,11.83
2023-02-24T10:17:24.047Z,10.87
2023-02-24T10:19:59.824Z,11.97
2023-02-24T10:22:29.789Z,11.27
2023-02-24T10:25:21.145Z,10.27
2023-02-24T10:27:53.236Z,8.90
2023-02-24T10:30:20.351Z,9.37
2023-02-24T10:33:00.165Z,9.60
2023-02-24T10:35:33.501Z,12.00
2023-02-24T10:38:10.737Z,12.07
2023-02-24T10:40:48.166Z,10.77
2023-02-24T10:43:19.323Z,8.33
2023-02-24T10:45:47.863Z,8.63
2023-02-24T10:48:41.356Z,9.93
2023-02-24T10:51:11.878Z,7.40
2023-02-24T10:53:39.273Z,9.10
2023-02-24T10:56:27.026Z,7.13
2023-02-24T10:59:48.241Z,6.47
2023-02-24T11:02:48.755Z,7.13
2023-02-24T11:05:38.192Z,9.83
2023-02-24T11:08:07.864Z,10.63
2023-02-24T11:10:52.832Z,11.83
2023-02-24T11:13:39.406Z,8.93
2023-02-24T11:16:27.534Z,10.50
2023-02-24T11:18:54.907Z,7.97
2023-02-24T11:21:24.527Z,10.33
2023-02-24T11:23:53.515Z,8.77
2023-02-24T11:26:26.480Z,6.57
2023-02-24T11:28:53.516Z,7.87
2023-02-24T11:31:27.841Z,7.97
2023-02-24T11:34:06.053Z,5.37
2023-02-24T11:36:43.353Z,7.27
2023-02-24T11:39:21.284Z,7.33
2023-02-24T11:41:53.123Z,5.07
2023-02-24T11:44:29.438Z,10.43
2023-02-24T11:46:58.282Z,6.60
2023-02-24T11:49:35.677Z,9.13
2023-02-24T11:52:04.627Z,9.20
2023-02-24T11:54:38.245Z,8.13
2023-02-24T11:57:06.195Z,11.77
2023-02-24T11:59:33.212Z,7.73
2023-02-24T12:02:23.637Z,9.87
2023-02-24T12:05:12.253Z,8.30
2023-02-24T12:07:43.519Z,10.07
2023-02-24T12:10:17.189Z,7.60
2023-02-24T12:12:53.670Z,4.60
2023-02-24T12:15:40.337Z,6.87
2023-02-24T12:18:07.525Z,8.03
2023-02-24T12:20:41.514Z,9.27
2023-02-24T12:23:23.307Z,6.33
2023-02-24T12:25:53.826Z,7.47
2023-02-24T12:28:42.697Z,5.57
2023-02-24T12:31:25.454Z,7.80
2023-02-24T12:34:00.258Z,7.17
2023-02-24T12:36:31.110Z,7.37
2023-02-24T12:39:15.871Z,6.20
2023-02-24T12:41:58.026Z,6.83
2023-02-24T12:44:29.134Z,8.73
2023-02-24T12:47:03.847Z,7.50
2023-02-24T12:49:30.988Z,8.83
2023-02-24T12:52:16.883Z,7.73
2023-02-24T12:55:02.651Z,8.47
2023-02-24T12:57:41.620Z,6.97
2023-02-24T13:00:14.619Z,9.57
2023-02-24T13:03:00.693Z,8.37
2023-02-24T13:05:32.291Z,6.37
2023-02-24T13:08:02.051Z,7.27
2023-02-24T13:10:41.597Z,6.17
2023-02-24T13:13:08.736Z,6.67
2023-02-24T13:15:36.156Z,7.73
2023-02-24T13:18:03.250Z,9.93
2023-02-24T13:20:34.794Z,8.20
2023-02-24T13:23:03.571Z,12.73
2023-02-24T13:25:37.572Z,6.47
2023-02-24T13:28:06.128Z,6.10
2023-02-24T13:30:33.204Z,8.23
2023-02-24T13:33:20.533Z,5.73
2023-02-24T13:35:48.524Z,6.10
2023-02-24T13:38:33.645Z,6.97
2023-02-24T13:41:08.563Z,5.20
2023-02-24T13:43:35.869Z,9.27
2023-02-24T13:46:05.106Z,5.80
2023-02-24T13:48:45.988Z,8.67
2023-02-24T13:51:28.412Z,8.43
2023-02-24T13:54:04.254Z,10.17
2023-02-24T13:56:50.092Z,9.37
2023-02-24T13:59:17.137Z,11.23
2023-02-24T14:02:10.267Z,11.30
2023-02-24T14:04:39.616Z,10.13
2023-02-24T14:07:10.973Z,9.53
2023-02-24T14:09:45.769Z,8.37
2023-02-24T14:12:20.220Z,11.03
2023-02-24T14:14:49.200Z,13.77
2023-02-24T14:17:30.606Z,10.03
2023-02-24T14:20:18.958Z,9.13
2023-02-24T14:22:55.412Z,9.93
2023-02-24T14:25:23.502Z,11.73
2023-02-24T14:27:52.444Z,11.83
2023-02-24T14:30:31.438Z,11.20
2023-02-24T14:32:58.837Z,11.67
2023-02-24T14:35:41.655Z,13.73
2023-02-24T14:38:38.550Z,13.00
2023-02-24T14:41:25.490Z,12.10
2023-02-24T14:43:52.833Z,12.40
2023-02-24T14:46:20.436Z,15.80
2023-02-24T14:48:54.015Z,13.93
2023-02-24T14:51:33.889Z,8.80
2023-02-24T14:54:05.786Z,12.57
2023-02-24T14:56:34.558Z,9.73
2023-02-24T14:59:08.212Z,14.97
2023-02-24T15:01:42.331Z,14.87
2023-02-24T15:04:30.468Z,12.40
2023-02-24T15:06:57.483Z,10.90
2023-02-24T15:09:28.916Z,10.03
2023-02-24T15:11:56.429Z,15.47
2023-02-24T15:14:32.876Z,12.60
2023-02-24T15:17:03.332Z,15.33
2023-02-24T15:19:43.986Z,10.67
2023-02-24T15:22:28.657Z,15.53
2023-02-24T15:25:10.866Z,13.07
2023-02-24T15:27:37.620Z,15.13
2023-02-24T15:30:25.075Z,15.73
2023-02-24T15:33:20.565Z,16.23
2023-02-24T15:35:50.924Z,12.03
2023-02-24T15:38:24.604Z,14.07
2023-02-24T15:40:57.200Z,11.60
2023-02-24T15:43:38.720Z,12.50
2023-02-24T15:46:33.947Z,12.10
2023-02-24T15:49:04.788Z,10.97
2023-02-24T15:51:38.841Z,10.27
2023-02-24T15:54:15.180Z,10.30
2023-02-24T15:56:42.897Z,9.20
2023-02-24T15:59:14.884Z,10.90
2023-02-24T16:01:41.872Z,11.63
2023-02-24T16:04:14.050Z,7.93
2023-02-24T16:06:43.788Z,14.37
2023-02-24T16:09:15.597Z,9.57
2023-02-24T16:11:45.099Z,11.93
2023-02-24T16:14:16.771Z,13.00
2023-02-24T16:16:44.617Z,10.57
2023-02-24T16:19:14.648Z,13.57
2023-02-24T16:21:41.334Z,14.87
2023-02-24T16:24:08.032Z,16.10
2023-02-24T16:26:40.088Z,6.77
2023-02-24T16:29:11.639Z,10.20
2023-02-24T16:31:39.828Z,12.73
2023-02-24T16:34:07.835Z,12.00
2023-02-24T16:36:34.589Z,16.93
2023-02-24T16:39:01.348Z,8.90
2023-02-24T16:41:28.172Z,13.73
2023-02-24T16:43:54.863Z,16.30
2023-02-24T16:46:23.179Z,16.40
2023-02-24T16:48:53.196Z,15.27
2023-02-24T16:51:20.437Z,14.23
2023-02-24T16:53:47.115Z,9.90
2023-02-24T16:56:15.157Z,13.03
2023-02-24T16:58:42.147Z,13.83
2023-02-24T17:01:15.716Z,6.53
2023-02-24T17:03:48.725Z,3.30
2023-02-24T17:06:15.484Z,5.03
2023-02-24T17:08:43.856Z,5.17
2023-02-24T17:11:14.572Z,5.40
2023-02-24T17:13:41.530Z,2.97
2023-02-24T17:16:08.307Z,7.50
2023-02-24T17:18:35.079Z,3.13
2023-02-24T17:21:02.341Z,0.83
2023-02-24T17:23:29.091Z,5.17
2023-02-24T17:25:58.702Z,2.67
2023-02-24T17:28:25.448Z,1.87
2023-02-24T17:30:52.253Z,3.83
2023-02-24T17:33:18.975Z,2.97
2023-02-24T17:35:48.660Z,2.60
2023-02-24T17:38:16.969Z,2.17
2023-02-24T17:40:44.769Z,5.07
2023-02-24T17:43:11.721Z,3.57
2023-02-24T17:45:42.952Z,6.67
2023-02-24T17:48:10.228Z,3.90
2023-02-24T17:50:37.227Z,4.40
2023-02-24T17:53:04.232Z,2.80
2023-02-24T17:55:30.894Z,5.57
2023-02-24T17:58:00.098Z,6.13
2023-02-24T18:00:27.596Z,5.30
2023-02-24T18:02:54.880Z,4.13
2023-02-24T18:05:21.804Z,5.00
2023-02-24T18:07:48.729Z,3.90
2023-02-24T18:10:15.411Z,6.23
2023-02-24T18:12:42.097Z,6.33
2023-02-24T18:15:09.769Z,7.03
2023-02-24T18:17:37.803Z,8.83
2023-02-24T18:20:06.416Z,5.43
2023-02-24T18:22:33.066Z,7.20
2023-02-24T18:25:01.190Z,4.53
2023-02-24T18:27:28.289Z,5.47
2023-02-24T18:29:55.253Z,6.03
2023-02-24T18:32:22.108Z,9.80
2023-02-24T18:34:49.275Z,7.50
2023-02-24T18:37:15.959Z,6.50
2023-02-24T18:39:42.707Z,10.33
2023-02-24T18:42:09.782Z,9.37
2023-02-24T18:44:36.570Z,6.93
2023-02-24T18:47:09.259Z,11.90
2023-02-24T18:49:36.997Z,6.63
2023-02-24T18:52:05.234Z,10.23
2023-02-24T18:54:33.340Z,11.43
2023-02-24T18:57:00.041Z,14.33
2023-02-24T18:59:26.769Z,12.03
2023-02-24T19:01:56.528Z,7.50
2023-02-24T19:04:23.989Z,11.60
2023-02-24T19:06:50.804Z,8.30
2023-02-24T19:09:21.554Z,8.80
2023-02-24T19:11:49.618Z,14.03
2023-02-24T19:14:17.810Z,15.30
2023-02-24T19:16:45.883Z,13.90
2023-02-24T19:19:14.383Z,11.07
2023-02-24T19:21:41.405Z,20.17
2023-02-24T19:24:10.984Z,12.87
2023-02-24T19:26:39.011Z,10.07
2023-02-24T19:29:08.496Z,21.93
2023-02-24T19:31:35.387Z,15.17
2023-02-24T19:34:06.843Z,16.67
2023-02-24T19:36:35.767Z,15.33
2023-02-24T19:39:02.687Z,10.60
2023-02-24T19:41:29.645Z,15.67
2023-02-24T19:43:56.813Z,18.80
2023-02-24T19:46:24.186Z,10.77
2023-02-24T19:48:50.964Z,6.83
2023-02-24T19:51:23.188Z,19.73
2023-02-24T19:53:57.352Z,18.10
2023-02-24T19:56:30.280Z,16.33
2023-02-24T19:58:58.566Z,11.00
2023-02-24T20:01:28.522Z,17.60
2023-02-24T20:03:57.888Z,12.27
2023-02-24T20:06:31.664Z,15.40
2023-02-24T20:08:59.464Z,12.13
2023-02-24T20:11:28.664Z,15.80
2023-02-24T20:13:55.835Z,15.73
2023-02-24T20:16:25.317Z,16.33
2023-02-24T20:18:55.173Z,12.20
2023-02-24T20:21:21.946Z,22.73
2023-02-24T20:23:48.626Z,20.20
2023-02-24T20:26:16.308Z,15.20
2023-02-24T20:28:44.357Z,19.33
2023-02-24T20:31:15.170Z,21.93
2023-02-24T20:33:43.491Z,19.63
2023-02-24T20:36:12.607Z,16.70
2023-02-24T20:38:39.396Z,13.50
2023-02-24T20:41:06.773Z,19.77
2023-02-24T20:43:34.430Z,13.00
2023-02-24T20:46:17.281Z,14.83
2023-02-24T20:48:44.584Z,12.93
2023-02-24T20:51:12.403Z,21.60
2023-02-24T20:53:55.667Z,14.50
2023-02-24T20:56:25.015Z,12.90
2023-02-24T20:58:54.149Z,17.17
2023-02-24T21:01:21.385Z,15.33
2023-02-24T21:03:50.221Z,20.60
2023-02-24T21:06:18.850Z,13.93
2023-02-24T21:08:45.844Z,12.20
2023-02-24T21:11:13.619Z,14.63
2023-02-24T21:13:45.000Z,19.47
2023-02-24T21:16:13.090Z,26.33
2023-02-24T21:18:41.326Z,21.13
2023-02-24T21:21:09.033Z,18.17
2023-02-24T21:23:36.980Z,18.80
2023-02-24T21:26:04.422Z,19.00
2023-02-24T21:28:31.142Z,9.47
2023-02-24T21:30:57.975Z,21.57
2023-02-24T21:33:24.815Z,10.80
2023-02-24T21:35:58.968Z,14.63
2023-02-24T21:38:25.748Z,13.03
2023-02-24T21:40:53.089Z,16.97
2023-02-24T21:43:21.707Z,12.60
2023-02-24T21:45:49.595Z,15.93
2023-02-24T21:48:16.284Z,12.30
2023-02-24T21:50:42.961Z,23.93
2023-02-24T21:53:09.678Z,12.87
2023-02-24T21:55:38.572Z,17.93
2023-02-24T21:58:05.688Z,9.30
2023-02-24T22:00:32.927Z,18.33
2023-02-24T22:02:59.749Z,16.63
2023-02-24T22:05:27.118Z,17.57
2023-02-24T22:07:53.822Z,13.90
2023-02-24T22:10:23.029Z,6.83
2023-02-24T22:12:50.807Z,9.57
2023-02-24T22:15:17.621Z,17.60
2023-02-24T22:17:44.348Z,14.13
2023-02-24T22:20:13.726Z,10.20
2023-02-24T22:22:42.124Z,18.00
2023-02-24T22:25:13.074Z,11.17
2023-02-24T22:27:39.891Z,19.50
2023-02-24T22:30:10.501Z,19.47
2023-02-24T22:32:37.581Z,10.57
2023-02-24T22:35:04.660Z,14.33
2023-02-24T22:37:31.411Z,12.97
2023-02-24T22:39:58.100Z,10.93
2023-02-24T22:42:25.795Z,17.90
2023-02-24T22:44:52.764Z,13.50
2023-02-24T22:47:19.452Z,11.80
2023-02-24T22:49:47.068Z,8.60
2023-02-24T22:52:16.668Z,11.50
2023-02-24T22:54:44.679Z,13.90
2023-02-24T22:57:12.401Z,11.37
2023-02-24T22:59:39.088Z,13.83
2023-02-24T23:02:06.537Z,17.33
2023-02-24T23:04:35.197Z,13.97
2023-02-24T23:07:02.389Z,11.10
2023-02-24T23:09:29.515Z,11.30
2023-02-24T23:11:56.168Z,13.20
2023-02-24T23:14:22.940Z,11.47
2023-02-24T23:16:54.690Z,15.20
2023-02-24T23:19:22.392Z,13.77
2023-02-24T23:21:51.713Z,14.37
2023-02-24T23:24:19.976Z,15.20
2023-02-24T23:26:53.822Z,12.77
2023-02-24T23:29:22.646Z,14.13
2023-02-24T23:31:49.456Z,13.80
2023-02-24T23:34:16.282Z,9.30
2023-02-24T23:36:45.382Z,14.87
2023-02-24T23:39:14.523Z,16.87
2023-02-24T23:41:41.626Z,13.30
2023-02-24T23:44:08.408Z,12.73
2023-02-24T23:46:36.450Z,14.10
2023-02-24T23:49:03.392Z,13.63
2023-02-24T23:51:45.765Z,17.43
2023-02-24T23:54:15.598Z,12.67
2023-02-24T23:56:43.328Z,8.30
2023-02-24T23:59:09.980Z,13.13
